createdAt,value
2023-09-23T00:00:39.283Z,7.30
2023-09-23T00:03:06.926Z,7.30
2023-09-23T00:05:37.290Z,7.30
2023-09-23T00:08:07.337Z,7.30
2023-09-23T00:10:35.793Z,7.30
2023-09-23T00:13:03.008Z,7.40
2023-09-23T00:15:30.436Z,7.40
2023-09-23T00:17:57.933Z,7.30
2023-09-23T00:20:25.086Z,7.30
2023-09-23T00:22:53.781Z,7.30
2023-09-23T00:25:20.782Z,7.30
2023-09-23T00:27:47.887Z,7.30
2023-09-23T00:30:15.151Z,7.40
2023-09-23T00:32:45.314Z,7.40
2023-09-23T00:35:13.580Z,7.40
2023-09-23T00:37:43.952Z,7.40
2023-09-23T00:40:18.561Z,7.40
2023-09-23T00:42:49.137Z,7.40
2023-09-23T00:45:17.943Z,7.40
2023-09-23T00:47:46.876Z,7.50
2023-09-23T00:50:20.638Z,7.50
2023-09-23T00:52:53.803Z,7.60
2023-09-23T00:55:21.977Z,7.70
2023-09-23T00:57:50.199Z,7.70
2023-09-23T01:00:25.659Z,7.70
2023-09-23T01:02:57.303Z,7.70
2023-09-23T01:05:30.993Z,7.80
2023-09-23T01:08:18.639Z,7.80
2023-09-23T01:10:46.891Z,7.80
2023-09-23T01:13:13.865Z,7.80
2023-09-23T01:15:44.425Z,7.90
2023-09-23T01:18:18.981Z,7.90
2023-09-23T01:20:51.115Z,7.90
2023-09-23T01:23:19.126Z,7.90
2023-09-23T01:25:46.210Z,7.80
2023-09-23T01:28:13.503Z,7.90
2023-09-23T01:30:47.086Z,7.90
2023-09-23T01:33:17.609Z,7.90
2023-09-23T01:35:47.206Z,7.90
2023-09-23T01:38:17.791Z,7.90
2023-09-23T01:40:45.056Z,7.90
2023-09-23T01:43:13.116Z,7.80
2023-09-23T01:45:41.015Z,7.80
2023-09-23T01:48:08.766Z,7.80
2023-09-23T01:50:35.858Z,7.80
2023-09-23T01:53:03.140Z,7.90
2023-09-23T01:55:30.949Z,7.90
2023-09-23T01:57:58.079Z,7.80
2023-09-23T02:00:27.833Z,7.90
2023-09-23T02:02:58.554Z,7.80
2023-09-23T02:05:30.654Z,7.80
2023-09-23T02:07:58.120Z,7.80
2023-09-23T02:10:28.128Z,7.80
2023-09-23T02:12:55.744Z,7.70
2023-09-23T02:15:22.813Z,7.70
2023-09-23T02:17:51.019Z,7.70
2023-09-23T02:20:20.958Z,7.60
2023-09-23T02:22:55.170Z,7.50
2023-09-23T02:25:26.171Z,7.50
2023-09-23T02:27:53.938Z,7.40
2023-09-23T02:30:21.305Z,7.40
2023-09-23T02:32:48.705Z,7.50
2023-09-23T02:35:17.545Z,7.50
2023-09-23T02:37:52.218Z,7.40
2023-09-23T02:40:19.846Z,7.40
2023-09-23T02:42:48.985Z,7.40
2023-09-23T02:45:18.830Z,7.30
2023-09-23T02:47:46.102Z,7.40
2023-09-23T02:50:14.160Z,7.40
2023-09-23T02:52:42.650Z,7.30
2023-09-23T02:55:14.020Z,7.30
2023-09-23T02:57:42.643Z,7.20
2023-09-23T03:00:21.152Z,7.20
2023-09-23T03:02:56.780Z,7.20
2023-09-23T03:05:31.581Z,7.20
2023-09-23T03:08:01.232Z,7.20
2023-09-23T03:10:42.042Z,7.20
2023-09-23T03:13:12.567Z,7.10
2023-09-23T03:15:54.634Z,7.10
2023-09-23T03:18:35.321Z,7.10
2023-09-23T03:21:09.713Z,7.00
2023-09-23T03:23:41.446Z,7.00
2023-09-23T03:26:10.225Z,6.90
2023-09-23T03:28:40.329Z,6.90
2023-09-23T03:31:10.411Z,6.90
2023-09-23T03:33:38.404Z,6.90
2023-09-23T03:36:06.963Z,6.90
2023-09-23T03:38:34.678Z,6.90
2023-09-23T03:41:04.162Z,6.90
2023-09-23T03:43:31.213Z,6.90
2023-09-23T03:45:58.217Z,6.90
2023-09-23T03:48:26.821Z,6.80
2023-09-23T03:50:54.599Z,6.80
2023-09-23T03:53:22.922Z,6.80
2023-09-23T03:55:53.826Z,6.80
2023-09-23T03:58:21.410Z,6.80
2023-09-23T04:00:48.732Z,6.80
2023-09-23T04:03:16.146Z,6.80
2023-09-23T04:05:43.200Z,6.80
2023-09-23T04:08:10.651Z,6.80
2023-09-23T04:10:41.287Z,6.90
2023-09-23T04:13:08.562Z,6.90
2023-09-23T04:15:35.496Z,6.90
2023-09-23T04:18:05.304Z,6.90
2023-09-23T04:20:33.265Z,6.90
2023-09-23T04:23:00.475Z,7.00
2023-09-23T04:25:27.647Z,7.00
2023-09-23T04:27:54.981Z,7.00
2023-09-23T04:30:22.669Z,7.10
2023-09-23T04:32:49.689Z,7.00
2023-09-23T04:35:19.440Z,7.00
2023-09-23T04:37:46.457Z,7.00
2023-09-23T04:40:14.511Z,7.00
2023-09-23T04:42:42.946Z,6.90
2023-09-23T04:45:11.601Z,6.90
2023-09-23T04:47:39.516Z,6.90
2023-09-23T04:50:08.912Z,6.90
2023-09-23T04:52:36.706Z,6.90
2023-09-23T04:55:04.250Z,6.90
2023-09-23T04:57:31.569Z,6.90
2023-09-23T04:59:58.863Z,6.90
2023-09-23T05:02:27.633Z,6.80
2023-09-23T05:04:55.186Z,6.90
2023-09-23T05:07:23.082Z,6.90
2023-09-23T05:09:50.817Z,6.80
2023-09-23T05:12:18.728Z,6.70
2023-09-23T05:14:46.093Z,6.70
2023-09-23T05:17:16.721Z,6.60
2023-09-23T05:19:47.623Z,6.60
2023-09-23T05:22:14.809Z,6.50
2023-09-23T05:24:42.881Z,6.50
2023-09-23T05:27:11.043Z,6.40
2023-09-23T05:29:38.117Z,6.30
2023-09-23T05:32:05.257Z,6.30
2023-09-23T05:34:32.379Z,6.30
2023-09-23T05:36:59.417Z,6.30
2023-09-23T05:39:27.132Z,6.20
2023-09-23T05:41:54.938Z,6.20
2023-09-23T05:44:21.979Z,6.20
2023-09-23T05:46:49.849Z,6.20
2023-09-23T05:49:16.899Z,6.20
2023-09-23T05:51:45.442Z,6.30
2023-09-23T05:54:13.040Z,6.30
2023-09-23T05:56:40.057Z,6.40
2023-09-23T05:59:09.361Z,6.40
2023-09-23T06:01:37.193Z,6.40
2023-09-23T06:04:04.453Z,6.40
2023-09-23T06:06:32.197Z,6.40
2023-09-23T06:08:59.826Z,6.40
2023-09-23T06:11:28.224Z,6.50
2023-09-23T06:13:55.217Z,6.50
2023-09-23T06:16:22.253Z,6.50
2023-09-23T06:18:49.216Z,6.60
2023-09-23T06:21:16.306Z,6.60
2023-09-23T06:23:43.312Z,6.60
2023-09-23T06:26:11.529Z,6.50
2023-09-23T06:28:38.677Z,6.50
2023-09-23T06:31:09.792Z,6.60
2023-09-23T06:33:37.116Z,6.60
2023-09-23T06:36:05.671Z,6.60
2023-09-23T06:38:33.583Z,6.60
2023-09-23T06:41:01.080Z,6.60
2023-09-23T06:43:28.293Z,6.70
2023-09-23T06:45:56.599Z,6.70
2023-09-23T06:48:25.176Z,6.80
2023-09-23T06:51:03.441Z,6.70
2023-09-23T06:53:31.898Z,6.80
2023-09-23T06:55:59.499Z,6.80
2023-09-23T06:58:26.538Z,6.90
2023-09-23T07:00:53.527Z,6.90
2023-09-23T07:03:20.884Z,6.90
2023-09-23T07:05:49.533Z,7.00
2023-09-23T07:08:17.665Z,7.00
2023-09-23T07:10:44.661Z,7.10
2023-09-23T07:13:13.149Z,7.10
2023-09-23T07:15:42.306Z,7.20
2023-09-23T07:18:09.927Z,7.30
2023-09-23T07:20:37.054Z,7.40
2023-09-23T07:23:04.524Z,7.40
2023-09-23T07:25:39.322Z,7.50
2023-09-23T07:28:09.699Z,7.60
2023-09-23T07:30:37.753Z,7.60
2023-09-23T07:33:05.075Z,7.70
2023-09-23T07:35:33.365Z,7.80
2023-09-23T07:38:01.000Z,7.80
2023-09-23T07:40:29.356Z,7.90
2023-09-23T07:42:56.857Z,8.00
2023-09-23T07:45:24.258Z,8.10
2023-09-23T07:47:51.287Z,8.10
2023-09-23T07:50:18.293Z,8.10
2023-09-23T07:52:45.305Z,8.20
2023-09-23T07:55:12.528Z,8.50
2023-09-23T07:57:39.488Z,8.70
2023-09-23T08:00:10.229Z,9.00
2023-09-23T08:02:37.432Z,9.20
2023-09-23T08:05:05.414Z,9.30
2023-09-23T08:07:34.185Z,9.30
2023-09-23T08:10:02.647Z,9.20
2023-09-23T08:12:29.655Z,9.10
2023-09-23T08:14:56.916Z,9.10
2023-09-23T08:17:23.915Z,9.20
2023-09-23T08:19:52.704Z,9.20
2023-09-23T08:22:19.969Z,9.20
2023-09-23T08:24:47.042Z,9.20
2023-09-23T08:27:14.223Z,9.30
2023-09-23T08:29:41.229Z,9.30
2023-09-23T08:32:08.381Z,9.40
2023-09-23T08:34:35.403Z,9.30
2023-09-23T08:37:02.415Z,9.40
2023-09-23T08:39:29.382Z,9.50
2023-09-23T08:41:58.487Z,9.60
2023-09-23T08:44:29.152Z,9.80
2023-09-23T08:46:56.482Z,9.90
2023-09-23T08:49:25.374Z,10.00
2023-09-23T08:51:56.532Z,10.10
2023-09-23T08:54:27.181Z,10.30
2023-09-23T08:56:55.951Z,10.60
2023-09-23T08:59:23.491Z,10.90
2023-09-23T09:01:50.731Z,11.00
2023-09-23T09:04:18.167Z,11.20
2023-09-23T09:06:52.956Z,11.20
2023-09-23T09:09:20.444Z,11.10
2023-09-23T09:11:52.681Z,11.00
2023-09-23T09:14:20.266Z,11.30
2023-09-23T09:16:47.516Z,11.60
2023-09-23T09:19:14.730Z,11.70
2023-09-23T09:21:42.751Z,11.90
2023-09-23T09:24:12.752Z,12.10
2023-09-23T09:26:39.818Z,12.60
2023-09-23T09:29:07.263Z,13.00
2023-09-23T09:31:36.028Z,12.80
2023-09-23T09:34:06.573Z,12.90
2023-09-23T09:36:37.396Z,13.60
2023-09-23T09:39:12.101Z,14.20
2023-09-23T09:41:52.476Z,14.50
2023-09-23T09:44:24.467Z,14.20
2023-09-23T09:46:54.937Z,14.40
2023-09-23T09:49:26.008Z,15.00
2023-09-23T09:51:53.545Z,15.20
2023-09-23T09:54:26.806Z,15.50
2023-09-23T09:56:57.538Z,15.40
2023-09-23T09:59:27.747Z,15.20
2023-09-23T10:01:58.806Z,15.10
2023-09-23T10:04:36.573Z,15.50
2023-09-23T10:07:07.888Z,16.00
2023-09-23T10:09:39.342Z,16.40
2023-09-23T10:12:08.457Z,17.00
2023-09-23T10:14:35.518Z,17.30
2023-09-23T10:17:05.370Z,17.60
2023-09-23T10:19:40.302Z,17.50
2023-09-23T10:22:22.576Z,17.50
2023-09-23T10:25:05.861Z,17.40
2023-09-23T10:27:33.767Z,17.70
2023-09-23T10:30:03.731Z,17.80
2023-09-23T10:32:31.101Z,18.50
2023-09-23T10:34:58.323Z,18.90
2023-09-23T10:37:33.810Z,19.20
2023-09-23T10:40:10.281Z,18.90
2023-09-23T10:42:37.491Z,19.10
2023-09-23T10:45:04.846Z,19.60
2023-09-23T10:47:32.308Z,18.70
2023-09-23T10:50:00.735Z,17.80
2023-09-23T10:52:28.154Z,17.90
2023-09-23T10:54:56.026Z,18.70
2023-09-23T10:57:24.525Z,19.30
2023-09-23T10:59:56.326Z,19.50
2023-09-23T11:02:26.917Z,19.90
2023-09-23T11:04:56.903Z,20.30
2023-09-23T11:07:26.005Z,20.10
2023-09-23T11:09:55.383Z,20.50
2023-09-23T11:12:22.513Z,20.70
2023-09-23T11:14:50.016Z,21.20
2023-09-23T11:17:32.130Z,21.20
2023-09-23T11:20:01.605Z,20.60
2023-09-23T11:22:30.706Z,20.50
2023-09-23T11:24:59.268Z,21.10
2023-09-23T11:27:27.305Z,20.60
2023-09-23T11:29:55.472Z,19.20
2023-09-23T11:32:25.193Z,18.60
2023-09-23T11:34:53.572Z,18.00
2023-09-23T11:37:24.541Z,18.00
2023-09-23T11:39:52.034Z,17.90
2023-09-23T11:42:20.467Z,17.60
2023-09-23T11:44:47.809Z,17.60
2023-09-23T11:47:15.192Z,17.50
2023-09-23T11:49:42.151Z,17.90
2023-09-23T11:52:14.190Z,18.00
2023-09-23T11:54:44.772Z,17.40
2023-09-23T11:57:11.975Z,17.10
2023-09-23T11:59:39.382Z,17.30
2023-09-23T12:02:06.736Z,17.20
2023-09-23T12:04:34.042Z,17.20
2023-09-23T12:07:01.674Z,17.10
2023-09-23T12:09:29.413Z,17.00
2023-09-23T12:11:56.917Z,17.00
2023-09-23T12:14:24.360Z,16.60
2023-09-23T12:16:51.685Z,16.60
2023-09-23T12:19:18.936Z,16.60
2023-09-23T12:21:45.907Z,16.70
2023-09-23T12:24:13.003Z,16.60
2023-09-23T12:26:40.195Z,16.50
2023-09-23T12:29:07.250Z,16.00
2023-09-23T12:31:34.385Z,16.00
2023-09-23T12:34:01.488Z,16.00
2023-09-23T12:36:28.514Z,16.10
2023-09-23T12:38:58.325Z,16.20
2023-09-23T12:41:25.464Z,16.60
2023-09-23T12:43:54.419Z,16.60
2023-09-23T12:46:21.502Z,16.90
2023-09-23T12:48:48.654Z,17.40
2023-09-23T12:51:16.474Z,17.90
2023-09-23T12:53:43.870Z,18.60
2023-09-23T12:56:14.326Z,19.00
2023-09-23T12:58:41.301Z,18.50
2023-09-23T13:01:08.447Z,18.10
2023-09-23T13:03:35.821Z,18.40
2023-09-23T13:06:02.999Z,17.90
2023-09-23T13:08:30.693Z,17.60
2023-09-23T13:10:57.865Z,17.50
2023-09-23T13:13:25.119Z,17.60
2023-09-23T13:15:52.447Z,17.50
2023-09-23T13:18:20.298Z,17.40
2023-09-23T13:20:47.777Z,17.40
2023-09-23T13:23:15.105Z,17.30
2023-09-23T13:25:42.128Z,17.00
2023-09-23T13:28:09.224Z,17.10
2023-09-23T13:30:36.209Z,17.20
2023-09-23T13:33:05.318Z,17.30
2023-09-23T13:35:32.636Z,17.60
2023-09-23T13:38:00.224Z,17.60
2023-09-23T13:40:27.264Z,17.70
2023-09-23T13:42:54.459Z,17.90
2023-09-23T13:45:21.611Z,18.20
2023-09-23T13:47:48.881Z,18.70
2023-09-23T13:50:16.305Z,18.40
2023-09-23T13:52:43.396Z,18.60
2023-09-23T13:55:10.720Z,18.80
2023-09-23T13:57:38.118Z,19.40
2023-09-23T14:00:07.731Z,19.60
2023-09-23T14:02:35.119Z,19.60
2023-09-23T14:05:02.624Z,20.00
2023-09-23T14:07:29.728Z,20.40
2023-09-23T14:10:03.515Z,20.40
2023-09-23T14:12:38.549Z,20.50
2023-09-23T14:15:06.171Z,20.40
2023-09-23T14:17:33.303Z,20.70
2023-09-23T14:20:04.805Z,20.10
2023-09-23T14:22:32.254Z,20.30
2023-09-23T14:24:59.179Z,20.40
2023-09-23T14:27:26.150Z,19.90
2023-09-23T14:29:53.624Z,19.60
2023-09-23T14:32:20.684Z,19.90
2023-09-23T14:34:47.872Z,19.70
2023-09-23T14:37:14.916Z,19.60
2023-09-23T14:39:41.970Z,19.50
2023-09-23T14:42:08.990Z,19.30
2023-09-23T14:44:35.973Z,19.00
2023-09-23T14:47:03.125Z,18.70
2023-09-23T14:49:30.158Z,18.60
2023-09-23T14:51:57.121Z,18.40
2023-09-23T14:54:24.280Z,18.50
2023-09-23T14:56:51.242Z,18.20
2023-09-23T14:59:18.247Z,18.10
2023-09-23T15:01:45.547Z,17.80
2023-09-23T15:04:12.841Z,17.70
2023-09-23T15:06:39.880Z,18.10
2023-09-23T15:09:07.422Z,18.20
2023-09-23T15:11:34.771Z,17.90
2023-09-23T15:14:01.717Z,18.10
2023-09-23T15:16:30.789Z,17.90
2023-09-23T15:18:57.869Z,18.20
2023-09-23T15:21:24.836Z,18.20
2023-09-23T15:23:51.811Z,17.80
2023-09-23T15:26:19.137Z,17.80
2023-09-23T15:28:46.437Z,17.70
2023-09-23T15:31:13.789Z,17.60
2023-09-23T15:33:40.970Z,17.50
2023-09-23T15:36:09.605Z,17.30
2023-09-23T15:38:36.577Z,17.10
2023-09-23T15:41:03.569Z,16.90
2023-09-23T15:43:30.820Z,16.60
2023-09-23T15:46:02.701Z,16.70
2023-09-23T15:48:29.805Z,16.30
2023-09-23T15:50:57.204Z,16.30
2023-09-23T15:53:24.344Z,16.10
2023-09-23T15:55:51.895Z,15.90
2023-09-23T15:58:20.250Z,15.70
2023-09-23T16:00:48.264Z,15.60
2023-09-23T16:03:15.672Z,15.30
2023-09-23T16:05:43.651Z,15.20
2023-09-23T16:08:11.174Z,14.90
2023-09-23T16:10:38.261Z,14.80
2023-09-23T16:13:05.874Z,14.70
2023-09-23T16:15:33.253Z,14.40
2023-09-23T16:18:00.633Z,14.40
2023-09-23T16:20:28.065Z,14.30
2023-09-23T16:22:55.185Z,14.10
2023-09-23T16:25:22.307Z,14.00
2023-09-23T16:27:49.270Z,13.90
2023-09-23T16:30:16.853Z,13.90
2023-09-23T16:32:43.987Z,13.90
2023-09-23T16:35:12.086Z,13.90
2023-09-23T16:37:39.398Z,13.80
2023-09-23T16:40:08.517Z,13.70
2023-09-23T16:42:35.631Z,13.80
2023-09-23T16:45:02.767Z,13.80
2023-09-23T16:47:29.975Z,13.80
2023-09-23T16:49:57.090Z,13.80
2023-09-23T16:52:24.329Z,13.60
2023-09-23T16:54:51.757Z,13.60
2023-09-23T16:57:20.138Z,13.60
2023-09-23T16:59:48.022Z,13.40
2023-09-23T17:02:17.482Z,13.40
2023-09-23T17:04:48.783Z,13.20
2023-09-23T17:07:16.435Z,13.00
2023-09-23T17:09:44.760Z,13.00
2023-09-23T17:12:16.411Z,12.90
2023-09-23T17:14:43.603Z,12.70
2023-09-23T17:17:10.671Z,12.70
2023-09-23T17:19:37.675Z,12.60
2023-09-23T17:22:04.617Z,12.60
2023-09-23T17:24:31.764Z,12.40
2023-09-23T17:26:59.036Z,12.30
2023-09-23T17:29:26.198Z,12.20
2023-09-23T17:31:53.333Z,12.10
2023-09-23T17:34:20.298Z,12.00
2023-09-23T17:36:47.339Z,12.00
2023-09-23T17:39:14.302Z,11.90
2023-09-23T17:41:41.816Z,11.80
2023-09-23T17:44:08.851Z,11.70
2023-09-23T17:46:36.082Z,11.70
2023-09-23T17:49:03.443Z,11.60
2023-09-23T17:51:30.493Z,11.50
2023-09-23T17:53:57.496Z,11.40
2023-09-23T17:56:27.182Z,11.40
2023-09-23T17:58:54.933Z,11.30
2023-09-23T18:01:22.504Z,11.20
2023-09-23T18:03:50.157Z,11.10
2023-09-23T18:06:17.528Z,11.10
2023-09-23T18:08:44.658Z,11.00
2023-09-23T18:11:12.157Z,11.00
2023-09-23T18:13:42.905Z,10.90
2023-09-23T18:16:09.931Z,10.80
2023-09-23T18:18:37.439Z,10.80
2023-09-23T18:21:04.736Z,10.80
2023-09-23T18:23:33.039Z,10.80
2023-09-23T18:26:00.264Z,10.80
2023-09-23T18:28:27.504Z,10.90
2023-09-23T18:30:54.495Z,10.90
2023-09-23T18:33:21.581Z,10.90
2023-09-23T18:35:48.912Z,11.00
2023-09-23T18:38:15.996Z,11.10
2023-09-23T18:40:43.009Z,11.10
2023-09-23T18:43:11.330Z,11.10
2023-09-23T18:45:38.458Z,11.10
2023-09-23T18:48:23.812Z,11.10
2023-09-23T18:50:53.002Z,11.20
2023-09-23T18:53:21.091Z,11.30
2023-09-23T18:55:48.779Z,11.20
2023-09-23T18:58:15.928Z,11.20
2023-09-23T19:00:44.066Z,11.20
2023-09-23T19:03:11.121Z,11.10
2023-09-23T19:05:39.796Z,11.10
2023-09-23T19:08:07.321Z,11.10
2023-09-23T19:10:34.732Z,11.10
2023-09-23T19:13:02.203Z,11.00
2023-09-23T19:15:29.165Z,11.10
2023-09-23T19:17:58.207Z,11.10
2023-09-23T19:20:26.165Z,11.00
2023-09-23T19:22:53.382Z,11.00
2023-09-23T19:25:20.380Z,11.00
2023-09-23T19:27:48.126Z,11.00
2023-09-23T19:30:15.921Z,11.00
2023-09-23T19:32:43.162Z,11.00
2023-09-23T19:35:10.603Z,11.00
2023-09-23T19:37:39.298Z,11.00
2023-09-23T19:40:07.465Z,11.00
2023-09-23T19:42:34.953Z,11.00
2023-09-23T19:45:04.760Z,11.00
2023-09-23T19:47:32.869Z,11.00
2023-09-23T19:50:00.992Z,11.00
2023-09-23T19:52:33.919Z,10.90
2023-09-23T19:55:01.183Z,10.90
2023-09-23T19:57:28.113Z,10.80
2023-09-23T19:59:56.566Z,10.80
2023-09-23T20:02:23.847Z,10.80
2023-09-23T20:04:50.911Z,10.80
2023-09-23T20:07:18.480Z,10.60
2023-09-23T20:09:45.493Z,10.60
2023-09-23T20:12:12.403Z,10.50
2023-09-23T20:14:39.651Z,10.50
2023-09-23T20:17:11.548Z,10.50
2023-09-23T20:19:38.796Z,10.50
2023-09-23T20:22:07.099Z,10.40
2023-09-23T20:24:34.789Z,10.50
2023-09-23T20:27:02.382Z,10.40
2023-09-23T20:29:29.476Z,10.40
2023-09-23T20:31:56.462Z,10.50
2023-09-23T20:34:23.446Z,10.50
2023-09-23T20:36:50.682Z,10.50
2023-09-23T20:39:17.608Z,10.40
2023-09-23T20:41:45.043Z,10.40
2023-09-23T20:44:12.247Z,10.40
2023-09-23T20:46:39.345Z,10.40
2023-09-23T20:49:07.234Z,10.40
2023-09-23T20:51:34.269Z,10.40
2023-09-23T20:54:02.107Z,10.20
2023-09-23T20:56:29.769Z,10.10
2023-09-23T20:58:58.491Z,10.00
2023-09-23T21:01:25.707Z,9.90
2023-09-23T21:03:54.290Z,9.90
2023-09-23T21:06:21.583Z,9.90
2023-09-23T21:08:48.984Z,9.80
2023-09-23T21:11:16.316Z,9.90
2023-09-23T21:13:43.339Z,9.80
2023-09-23T21:16:12.917Z,9.80
2023-09-23T21:18:40.655Z,9.80
2023-09-23T21:21:07.842Z,9.70
2023-09-23T21:23:34.861Z,9.70
2023-09-23T21:26:01.780Z,9.70
2023-09-23T21:28:29.307Z,9.70
2023-09-23T21:30:56.423Z,9.80
2023-09-23T21:33:23.431Z,9.80
2023-09-23T21:35:50.781Z,9.80
2023-09-23T21:38:17.857Z,9.90
2023-09-23T21:40:44.980Z,9.80
2023-09-23T21:43:11.974Z,9.80
2023-09-23T21:45:40.284Z,9.80
2023-09-23T21:48:09.187Z,9.80
2023-09-23T21:50:36.624Z,9.80
2023-09-23T21:53:06.144Z,9.70
2023-09-23T21:55:33.421Z,9.60
2023-09-23T21:58:00.409Z,9.70
2023-09-23T22:00:28.155Z,9.70
2023-09-23T22:03:00.847Z,9.80
2023-09-23T22:05:30.050Z,9.80
2023-09-23T22:07:59.594Z,9.90
2023-09-23T22:10:27.940Z,9.90
2023-09-23T22:12:57.024Z,9.90
2023-09-23T22:15:26.728Z,9.90
2023-09-23T22:17:54.851Z,9.90
2023-09-23T22:20:25.924Z,10.00
2023-09-23T22:22:54.049Z,10.00
2023-09-23T22:25:27.440Z,10.00
2023-09-23T22:27:55.780Z,10.10
2023-09-23T22:30:27.261Z,10.10
2023-09-23T22:32:56.936Z,10.10
2023-09-23T22:35:29.628Z,10.10
2023-09-23T22:37:58.551Z,10.10
2023-09-23T22:40:26.894Z,10.10
2023-09-23T22:42:56.314Z,10.20
2023-09-23T22:45:36.251Z,10.20
2023-09-23T22:48:06.471Z,10.20
2023-09-23T22:50:34.229Z,10.20
2023-09-23T22:53:01.286Z,10.30
2023-09-23T22:55:28.285Z,10.30
2023-09-23T22:57:55.663Z,10.30
2023-09-23T23:00:26.965Z,10.20
2023-09-23T23:02:55.981Z,10.20
2023-09-23T23:05:26.902Z,10.20
2023-09-23T23:07:57.323Z,10.20
2023-09-23T23:10:24.844Z,10.20
2023-09-23T23:12:52.204Z,10.20
2023-09-23T23:15:19.482Z,10.20
2023-09-23T23:17:48.655Z,10.20
2023-09-23T23:20:26.025Z,10.20
2023-09-23T23:22:56.840Z,10.20
2023-09-23T23:25:25.267Z,10.20
2023-09-23T23:27:52.527Z,10.20
2023-09-23T23:30:20.603Z,10.30
2023-09-23T23:32:49.676Z,10.30
2023-09-23T23:35:23.319Z,10.30
2023-09-23T23:37:50.944Z,10.30
2023-09-23T23:40:24.183Z,10.30
2023-09-23T23:42:51.824Z,10.40
2023-09-23T23:45:20.834Z,10.40
2023-09-23T23:47:48.917Z,10.40
2023-09-23T23:50:17.350Z,10.40
2023-09-23T23:52:47.241Z,10.40
2023-09-23T23:55:15.256Z,10.40
2023-09-23T23:57:42.616Z,10.50
